sensor_id;sensor_type;location;lat;lon;timestamp;temperature;humidity
66013;DHT22;52783;50.502;8.190;2024-03-08T00:01:06;2.20;99.90
66013;DHT22;52783;50.502;8.190;2024-03-08T00:03:32;2.30;99.90
66013;DHT22;52783;50.502;8.190;2024-03-08T00:05:58;2.30;99.90
66013;DHT22;52783;50.502;8.190;2024-03-08T00:08:23;2.20;99.90
66013;DHT22;52783;50.502;8.190;2024-03-08T00:10:49;2.20;99.90
66013;DHT22;52783;50.502;8.190;2024-03-08T00:13:14;2.10;99.90
66013;DHT22;52783;50.502;8.190;2024-03-08T00:15:40;2.10;99.90
66013;DHT22;52783;50.502;8.190;2024-03-08T00:18:06;2.10;99.90
66013;DHT22;52783;50.502;8.190;2024-03-08T00:20:32;2.10;99.90
66013;DHT22;52783;50.502;8.190;2024-03-08T00:22:58;2.10;99.90
66013;DHT22;52783;50.502;8.190;2024-03-08T00:25:24;2.10;99.90
66013;DHT22;52783;50.502;8.190;2024-03-08T00:27:50;2.00;99.90
66013;DHT22;52783;50.502;8.190;2024-03-08T00:30:15;2.00;99.90
66013;DHT22;52783;50.502;8.190;2024-03-08T00:32:41;2.00;99.90
66013;DHT22;52783;50.502;8.190;2024-03-08T00:35:07;2.00;99.90
66013;DHT22;52783;50.502;8.190;2024-03-08T00:37:32;2.00;99.90
66013;DHT22;52783;50.502;8.190;2024-03-08T00:39:59;2.10;99.90
66013;DHT22;52783;50.502;8.190;2024-03-08T00:42:25;1.90;99.90
66013;DHT22;52783;50.502;8.190;2024-03-08T00:44:51;2.00;99.90
66013;DHT22;52783;50.502;8.190;2024-03-08T00:47:17;1.90;99.90
66013;DHT22;52783;50.502;8.190;2024-03-08T00:49:42;1.90;99.90
66013;DHT22;52783;50.502;8.190;2024-03-08T00:52:08;1.90;99.90
66013;DHT22;52783;50.502;8.190;2024-03-08T00:54:35;1.90;99.90
66013;DHT22;52783;50.502;8.190;2024-03-08T00:57:04;1.90;99.90
66013;DHT22;52783;50.502;8.190;2024-03-08T00:59:30;1.90;99.90
66013;DHT22;52783;50.502;8.190;2024-03-08T01:01:58;1.80;99.90
66013;DHT22;52783;50.502;8.190;2024-03-08T01:04:24;1.90;99.90
66013;DHT22;52783;50.502;8.190;2024-03-08T01:06:51;1.80;99.90
66013;DHT22;52783;50.502;8.190;2024-03-08T01:09:16;1.90;99.90
66013;DHT22;52783;50.502;8.190;2024-03-08T01:11:42;1.90;99.90
66013;DHT22;52783;50.502;8.190;2024-03-08T01:14:08;1.80;99.90
66013;DHT22;52783;50.502;8.190;2024-03-08T01:16:34;1.80;99.90
66013;DHT22;52783;50.502;8.190;2024-03-08T01:18:59;1.70;99.90
66013;DHT22;52783;50.502;8.190;2024-03-08T01:21:25;1.80;99.90
66013;DHT22;52783;50.502;8.190;2024-03-08T01:23:50;1.80;99.90
66013;DHT22;52783;50.502;8.190;2024-03-08T01:26:16;1.80;99.90
66013;DHT22;52783;50.502;8.190;2024-03-08T01:28:41;1.70;99.90
66013;DHT22;52783;50.502;8.190;2024-03-08T01:31:07;1.70;99.90
66013;DHT22;52783;50.502;8.190;2024-03-08T01:33:32;1.70;99.90
66013;DHT22;52783;50.502;8.190;2024-03-08T01:35:58;1.60;99.90
66013;DHT22;52783;50.502;8.190;2024-03-08T01:38:24;1.70;99.90
66013;DHT22;52783;50.502;8.190;2024-03-08T01:40:50;1.70;99.90
66013;DHT22;52783;50.502;8.190;2024-03-08T01:43:25;1.70;99.90
66013;DHT22;52783;50.502;8.190;2024-03-08T01:45:52;1.60;99.90
66013;DHT22;52783;50.502;8.190;2024-03-08T01:48:19;1.60;99.90
66013;DHT22;52783;50.502;8.190;2024-03-08T01:50:47;1.60;99.90
66013;DHT22;52783;50.502;8.190;2024-03-08T01:53:13;1.60;99.90
66013;DHT22;52783;50.502;8.190;2024-03-08T01:55:40;1.60;99.90
66013;DHT22;52783;50.502;8.190;2024-03-08T01:58:06;1.60;99.90
66013;DHT22;52783;50.502;8.190;2024-03-08T02:00:35;1.60;99.90
66013;DHT22;52783;50.502;8.190;2024-03-08T02:03:02;1.60;99.90
66013;DHT22;52783;50.502;8.190;2024-03-08T02:05:28;1.60;99.90
66013;DHT22;52783;50.502;8.190;2024-03-08T02:07:53;1.60;99.90
66013;DHT22;52783;50.502;8.190;2024-03-08T02:10:19;1.60;99.90
66013;DHT22;52783;50.502;8.190;2024-03-08T02:12:46;1.50;99.90
66013;DHT22;52783;50.502;8.190;2024-03-08T02:18:00;1.50;99.90
66013;DHT22;52783;50.502;8.190;2024-03-08T02:20:29;1.50;99.90
66013;DHT22;52783;50.502;8.190;2024-03-08T02:22:54;1.50;99.90
66013;DHT22;52783;50.502;8.190;2024-03-08T02:25:20;1.50;99.90
66013;DHT22;52783;50.502;8.190;2024-03-08T02:27:45;1.50;99.90
66013;DHT22;52783;50.502;8.190;2024-03-08T02:30:11;1.60;99.90
66013;DHT22;52783;50.502;8.190;2024-03-08T02:32:37;1.60;99.90
66013;DHT22;52783;50.502;8.190;2024-03-08T02:35:03;1.50;99.90
66013;DHT22;52783;50.502;8.190;2024-03-08T02:37:31;1.50;99.90
66013;DHT22;52783;50.502;8.190;2024-03-08T02:39:56;1.50;99.90
66013;DHT22;52783;50.502;8.190;2024-03-08T02:42:22;1.50;99.90
66013;DHT22;52783;50.502;8.190;2024-03-08T02:44:48;1.50;99.90
66013;DHT22;52783;50.502;8.190;2024-03-08T02:47:13;1.50;99.90
66013;DHT22;52783;50.502;8.190;2024-03-08T02:49:39;1.50;99.90
66013;DHT22;52783;50.502;8.190;2024-03-08T02:52:04;1.50;99.90
66013;DHT22;52783;50.502;8.190;2024-03-08T02:54:30;1.60;99.90
66013;DHT22;52783;50.502;8.190;2024-03-08T02:56:56;1.50;99.90
66013;DHT22;52783;50.502;8.190;2024-03-08T02:59:21;1.50;99.90
66013;DHT22;52783;50.502;8.190;2024-03-08T03:01:47;1.50;99.90
66013;DHT22;52783;50.502;8.190;2024-03-08T03:04:12;1.50;99.90
66013;DHT22;52783;50.502;8.190;2024-03-08T03:06:38;1.60;99.90
66013;DHT22;52783;50.502;8.190;2024-03-08T03:09:04;1.60;99.90
66013;DHT22;52783;50.502;8.190;2024-03-08T03:11:31;1.60;99.90
66013;DHT22;52783;50.502;8.190;2024-03-08T03:13:57;1.60;99.90
66013;DHT22;52783;50.502;8.190;2024-03-08T03:16:38;1.50;99.90
66013;DHT22;52783;50.502;8.190;2024-03-08T03:19:04;1.50;99.90
66013;DHT22;52783;50.502;8.190;2024-03-08T03:21:30;1.60;99.90
66013;DHT22;52783;50.502;8.190;2024-03-08T03:23:57;1.50;99.90
66013;DHT22;52783;50.502;8.190;2024-03-08T03:26:24;1.50;99.90
66013;DHT22;52783;50.502;8.190;2024-03-08T03:28:49;1.50;99.90
66013;DHT22;52783;50.502;8.190;2024-03-08T03:31:15;1.40;99.90
66013;DHT22;52783;50.502;8.190;2024-03-08T03:33:42;1.50;99.90
66013;DHT22;52783;50.502;8.190;2024-03-08T03:36:08;1.40;99.90
66013;DHT22;52783;50.502;8.190;2024-03-08T03:38:44;1.40;99.90
66013;DHT22;52783;50.502;8.190;2024-03-08T03:41:09;1.40;99.90
66013;DHT22;52783;50.502;8.190;2024-03-08T03:43:39;1.40;99.90
66013;DHT22;52783;50.502;8.190;2024-03-08T03:46:08;1.40;99.90
66013;DHT22;52783;50.502;8.190;2024-03-08T03:48:35;1.40;99.90
66013;DHT22;52783;50.502;8.190;2024-03-08T03:51:01;1.40;99.90
66013;DHT22;52783;50.502;8.190;2024-03-08T03:53:27;1.50;99.90
66013;DHT22;52783;50.502;8.190;2024-03-08T03:55:52;1.40;99.90
66013;DHT22;52783;50.502;8.190;2024-03-08T03:58:18;1.50;99.90
66013;DHT22;52783;50.502;8.190;2024-03-08T04:00:48;1.50;99.90
66013;DHT22;52783;50.502;8.190;2024-03-08T04:03:14;1.50;99.90
66013;DHT22;52783;50.502;8.190;2024-03-08T04:05:39;1.40;99.90
66013;DHT22;52783;50.502;8.190;2024-03-08T04:08:05;1.40;99.90
66013;DHT22;52783;50.502;8.190;2024-03-08T04:10:31;1.50;99.90
66013;DHT22;52783;50.502;8.190;2024-03-08T04:12:57;1.50;99.90
66013;DHT22;52783;50.502;8.190;2024-03-08T04:15:22;1.50;99.90
66013;DHT22;52783;50.502;8.190;2024-03-08T04:17:48;1.40;99.90
66013;DHT22;52783;50.502;8.190;2024-03-08T04:20:13;1.40;99.90
66013;DHT22;52783;50.502;8.190;2024-03-08T04:22:39;1.40;99.90
66013;DHT22;52783;50.502;8.190;2024-03-08T04:25:06;1.30;99.90
66013;DHT22;52783;50.502;8.190;2024-03-08T04:27:33;1.30;99.90
66013;DHT22;52783;50.502;8.190;2024-03-08T04:29:58;1.30;99.90
66013;DHT22;52783;50.502;8.190;2024-03-08T04:32:24;1.30;99.90
66013;DHT22;52783;50.502;8.190;2024-03-08T04:34:50;1.30;99.90
66013;DHT22;52783;50.502;8.190;2024-03-08T04:37:16;1.30;99.90
66013;DHT22;52783;50.502;8.190;2024-03-08T04:39:46;1.30;99.90
66013;DHT22;52783;50.502;8.190;2024-03-08T04:42:12;1.20;99.90
66013;DHT22;52783;50.502;8.190;2024-03-08T04:44:38;1.20;99.90
66013;DHT22;52783;50.502;8.190;2024-03-08T04:47:04;1.20;99.90
66013;DHT22;52783;50.502;8.190;2024-03-08T04:49:32;1.20;99.90
66013;DHT22;52783;50.502;8.190;2024-03-08T04:51:57;1.20;99.90
66013;DHT22;52783;50.502;8.190;2024-03-08T04:54:23;1.10;99.90
66013;DHT22;52783;50.502;8.190;2024-03-08T04:56:49;1.10;99.90
66013;DHT22;52783;50.502;8.190;2024-03-08T04:59:14;1.10;99.90
66013;DHT22;52783;50.502;8.190;2024-03-08T05:01:40;1.10;99.90
66013;DHT22;52783;50.502;8.190;2024-03-08T05:04:05;1.10;99.90
66013;DHT22;52783;50.502;8.190;2024-03-08T05:06:31;1.10;99.90
66013;DHT22;52783;50.502;8.190;2024-03-08T05:08:57;1.10;99.90
66013;DHT22;52783;50.502;8.190;2024-03-08T05:11:22;1.00;99.90
66013;DHT22;52783;50.502;8.190;2024-03-08T05:13:48;1.00;99.90
66013;DHT22;52783;50.502;8.190;2024-03-08T05:16:13;1.00;99.90
66013;DHT22;52783;50.502;8.190;2024-03-08T05:18:40;1.00;99.90
66013;DHT22;52783;50.502;8.190;2024-03-08T05:21:07;1.00;99.90
66013;DHT22;52783;50.502;8.190;2024-03-08T05:23:34;1.00;99.90
66013;DHT22;52783;50.502;8.190;2024-03-08T05:26:00;1.00;99.90
66013;DHT22;52783;50.502;8.190;2024-03-08T05:28:26;1.00;99.90
66013;DHT22;52783;50.502;8.190;2024-03-08T05:30:51;1.00;99.90
66013;DHT22;52783;50.502;8.190;2024-03-08T05:33:17;1.00;99.90
66013;DHT22;52783;50.502;8.190;2024-03-08T05:35:45;1.10;99.90
66013;DHT22;52783;50.502;8.190;2024-03-08T05:38:11;1.10;99.90
66013;DHT22;52783;50.502;8.190;2024-03-08T05:40:38;1.00;99.90
66013;DHT22;52783;50.502;8.190;2024-03-08T05:43:03;1.10;99.90
66013;DHT22;52783;50.502;8.190;2024-03-08T05:45:29;1.10;99.90
66013;DHT22;52783;50.502;8.190;2024-03-08T05:47:55;1.10;99.90
66013;DHT22;52783;50.502;8.190;2024-03-08T05:50:20;1.00;99.90
66013;DHT22;52783;50.502;8.190;2024-03-08T05:52:46;1.00;99.90
66013;DHT22;52783;50.502;8.190;2024-03-08T05:55:13;1.00;99.90
66013;DHT22;52783;50.502;8.190;2024-03-08T05:57:40;1.00;99.90
66013;DHT22;52783;50.502;8.190;2024-03-08T06:00:06;1.00;99.90
66013;DHT22;52783;50.502;8.190;2024-03-08T06:02:32;1.00;99.90
66013;DHT22;52783;50.502;8.190;2024-03-08T06:04:58;1.00;99.90
66013;DHT22;52783;50.502;8.190;2024-03-08T06:07:23;0.90;99.90
66013;DHT22;52783;50.502;8.190;2024-03-08T06:09:49;1.00;99.90
66013;DHT22;52783;50.502;8.190;2024-03-08T06:12:14;0.90;99.90
66013;DHT22;52783;50.502;8.190;2024-03-08T06:14:44;1.00;99.90
66013;DHT22;52783;50.502;8.190;2024-03-08T06:17:10;1.00;99.90
66013;DHT22;52783;50.502;8.190;2024-03-08T06:19:36;1.00;99.90
66013;DHT22;52783;50.502;8.190;2024-03-08T06:22:02;1.00;99.90
66013;DHT22;52783;50.502;8.190;2024-03-08T06:24:31;1.00;99.90
66013;DHT22;52783;50.502;8.190;2024-03-08T06:26:56;1.00;99.90
66013;DHT22;52783;50.502;8.190;2024-03-08T06:29:22;1.10;99.90
66013;DHT22;52783;50.502;8.190;2024-03-08T06:31:49;1.10;99.90
66013;DHT22;52783;50.502;8.190;2024-03-08T06:34:15;1.10;99.90
66013;DHT22;52783;50.502;8.190;2024-03-08T06:36:41;1.20;99.90
66013;DHT22;52783;50.502;8.190;2024-03-08T06:39:06;1.40;99.90
66013;DHT22;52783;50.502;8.190;2024-03-08T06:41:36;1.50;99.90
66013;DHT22;52783;50.502;8.190;2024-03-08T06:44:01;1.60;99.90
66013;DHT22;52783;50.502;8.190;2024-03-08T06:46:27;1.60;99.90
66013;DHT22;52783;50.502;8.190;2024-03-08T06:48:53;1.60;99.90
66013;DHT22;52783;50.502;8.190;2024-03-08T06:51:19;1.90;99.90
66013;DHT22;52783;50.502;8.190;2024-03-08T06:53:44;2.00;99.90
66013;DHT22;52783;50.502;8.190;2024-03-08T06:56:10;2.00;99.90
66013;DHT22;52783;50.502;8.190;2024-03-08T06:58:35;2.10;99.90
66013;DHT22;52783;50.502;8.190;2024-03-08T07:01:01;2.10;99.90
66013;DHT22;52783;50.502;8.190;2024-03-08T07:03:29;2.30;99.90
66013;DHT22;52783;50.502;8.190;2024-03-08T07:05:55;2.50;99.90
66013;DHT22;52783;50.502;8.190;2024-03-08T07:08:23;2.40;99.90
66013;DHT22;52783;50.502;8.190;2024-03-08T07:10:49;2.80;99.90
66013;DHT22;52783;50.502;8.190;2024-03-08T07:13:14;2.70;99.90
66013;DHT22;52783;50.502;8.190;2024-03-08T07:15:40;2.40;99.90
66013;DHT22;52783;50.502;8.190;2024-03-08T07:18:06;2.50;99.90
66013;DHT22;52783;50.502;8.190;2024-03-08T07:20:34;2.70;99.90
66013;DHT22;52783;50.502;8.190;2024-03-08T07:23:00;2.70;99.90
66013;DHT22;52783;50.502;8.190;2024-03-08T07:25:25;3.10;99.90
66013;DHT22;52783;50.502;8.190;2024-03-08T07:27:55;2.60;99.90
66013;DHT22;52783;50.502;8.190;2024-03-08T07:30:25;2.70;99.90
66013;DHT22;52783;50.502;8.190;2024-03-08T07:33:10;2.80;99.90
66013;DHT22;52783;50.502;8.190;2024-03-08T07:35:39;2.70;99.90
66013;DHT22;52783;50.502;8.190;2024-03-08T07:38:06;2.90;99.90
66013;DHT22;52783;50.502;8.190;2024-03-08T07:40:35;2.80;99.90
66013;DHT22;52783;50.502;8.190;2024-03-08T07:43:01;2.80;99.90
66013;DHT22;52783;50.502;8.190;2024-03-08T07:45:28;3.10;99.90
66013;DHT22;52783;50.502;8.190;2024-03-08T07:47:53;3.10;99.90
66013;DHT22;52783;50.502;8.190;2024-03-08T07:50:19;3.10;99.90
66013;DHT22;52783;50.502;8.190;2024-03-08T07:52:44;2.90;99.90
66013;DHT22;52783;50.502;8.190;2024-03-08T07:55:10;3.20;99.90
66013;DHT22;52783;50.502;8.190;2024-03-08T07:57:35;3.20;99.90
66013;DHT22;52783;50.502;8.190;2024-03-08T08:00:05;3.40;99.90
66013;DHT22;52783;50.502;8.190;2024-03-08T08:02:34;3.50;99.90
66013;DHT22;52783;50.502;8.190;2024-03-08T08:05:00;3.60;99.90
66013;DHT22;52783;50.502;8.190;2024-03-08T08:07:26;3.80;99.90
66013;DHT22;52783;50.502;8.190;2024-03-08T08:09:53;3.60;99.90
66013;DHT22;52783;50.502;8.190;2024-03-08T08:12:18;3.50;99.90
66013;DHT22;52783;50.502;8.190;2024-03-08T08:14:44;4.00;99.90
66013;DHT22;52783;50.502;8.190;2024-03-08T08:17:09;3.80;99.90
66013;DHT22;52783;50.502;8.190;2024-03-08T08:19:35;3.90;99.90
66013;DHT22;52783;50.502;8.190;2024-03-08T08:22:01;3.80;99.90
66013;DHT22;52783;50.502;8.190;2024-03-08T08:24:28;3.80;99.90
66013;DHT22;52783;50.502;8.190;2024-03-08T08:26:53;4.00;99.90
66013;DHT22;52783;50.502;8.190;2024-03-08T08:29:19;4.00;99.90
66013;DHT22;52783;50.502;8.190;2024-03-08T08:31:45;4.00;99.90
66013;DHT22;52783;50.502;8.190;2024-03-08T08:34:11;4.20;99.90
66013;DHT22;52783;50.502;8.190;2024-03-08T08:36:40;4.20;99.90
66013;DHT22;52783;50.502;8.190;2024-03-08T08:39:05;4.20;99.90
66013;DHT22;52783;50.502;8.190;2024-03-08T08:41:37;4.30;99.90
66013;DHT22;52783;50.502;8.190;2024-03-08T08:44:03;4.60;99.90
66013;DHT22;52783;50.502;8.190;2024-03-08T08:46:28;4.50;99.90
66013;DHT22;52783;50.502;8.190;2024-03-08T08:48:54;4.80;99.90
66013;DHT22;52783;50.502;8.190;2024-03-08T08:51:19;4.70;99.90
66013;DHT22;52783;50.502;8.190;2024-03-08T08:53:45;4.80;99.90
66013;DHT22;52783;50.502;8.190;2024-03-08T08:56:15;4.70;99.90
66013;DHT22;52783;50.502;8.190;2024-03-08T08:58:41;5.10;99.90
66013;DHT22;52783;50.502;8.190;2024-03-08T09:01:10;5.40;99.90
66013;DHT22;52783;50.502;8.190;2024-03-08T09:03:37;5.40;99.90
66013;DHT22;52783;50.502;8.190;2024-03-08T09:06:04;5.40;99.90
66013;DHT22;52783;50.502;8.190;2024-03-08T09:08:29;5.30;99.90
66013;DHT22;52783;50.502;8.190;2024-03-08T09:10:55;5.70;99.90
66013;DHT22;52783;50.502;8.190;2024-03-08T09:13:21;5.40;99.90
66013;DHT22;52783;50.502;8.190;2024-03-08T09:15:46;5.60;99.90
66013;DHT22;52783;50.502;8.190;2024-03-08T09:18:12;6.00;99.90
66013;DHT22;52783;50.502;8.190;2024-03-08T09:20:37;5.40;99.90
66013;DHT22;52783;50.502;8.190;2024-03-08T09:23:03;6.30;99.90
66013;DHT22;52783;50.502;8.190;2024-03-08T09:25:29;6.50;99.90
66013;DHT22;52783;50.502;8.190;2024-03-08T09:27:55;6.30;99.90
66013;DHT22;52783;50.502;8.190;2024-03-08T09:30:20;6.50;99.90
66013;DHT22;52783;50.502;8.190;2024-03-08T09:32:47;6.40;99.90
66013;DHT22;52783;50.502;8.190;2024-03-08T09:35:12;6.70;99.90
66013;DHT22;52783;50.502;8.190;2024-03-08T09:37:38;6.10;99.90
66013;DHT22;52783;50.502;8.190;2024-03-08T09:40:04;6.80;99.90
66013;DHT22;52783;50.502;8.190;2024-03-08T09:42:40;6.40;99.90
66013;DHT22;52783;50.502;8.190;2024-03-08T09:45:10;6.10;99.90
66013;DHT22;52783;50.502;8.190;2024-03-08T09:47:43;5.50;99.90
66013;DHT22;52783;50.502;8.190;2024-03-08T09:50:09;5.50;99.90
66013;DHT22;52783;50.502;8.190;2024-03-08T09:52:38;5.60;99.90
66013;DHT22;52783;50.502;8.190;2024-03-08T09:55:12;5.70;99.90
66013;DHT22;52783;50.502;8.190;2024-03-08T09:57:38;5.80;99.90
66013;DHT22;52783;50.502;8.190;2024-03-08T10:00:05;5.90;99.90
66013;DHT22;52783;50.502;8.190;2024-03-08T10:02:47;6.10;99.90
66013;DHT22;52783;50.502;8.190;2024-03-08T10:05:13;6.10;99.90
66013;DHT22;52783;50.502;8.190;2024-03-08T10:07:39;6.20;99.90
66013;DHT22;52783;50.502;8.190;2024-03-08T10:10:05;5.90;99.90
66013;DHT22;52783;50.502;8.190;2024-03-08T10:12:30;6.00;99.90
66013;DHT22;52783;50.502;8.190;2024-03-08T10:14:58;6.20;99.90
66013;DHT22;52783;50.502;8.190;2024-03-08T10:17:24;6.10;99.90
66013;DHT22;52783;50.502;8.190;2024-03-08T10:19:51;6.10;99.90
66013;DHT22;52783;50.502;8.190;2024-03-08T10:22:18;6.20;99.90
66013;DHT22;52783;50.502;8.190;2024-03-08T10:24:46;6.20;99.90
66013;DHT22;52783;50.502;8.190;2024-03-08T10:27:11;6.60;99.90
66013;DHT22;52783;50.502;8.190;2024-03-08T10:29:37;6.80;99.90
66013;DHT22;52783;50.502;8.190;2024-03-08T10:32:04;6.70;99.90
66013;DHT22;52783;50.502;8.190;2024-03-08T10:34:32;7.00;99.90
66013;DHT22;52783;50.502;8.190;2024-03-08T10:37:05;6.90;99.90
66013;DHT22;52783;50.502;8.190;2024-03-08T10:39:35;7.20;99.90
66013;DHT22;52783;50.502;8.190;2024-03-08T10:42:03;7.10;99.90
66013;DHT22;52783;50.502;8.190;2024-03-08T10:47:01;7.10;99.90
66013;DHT22;52783;50.502;8.190;2024-03-08T10:49:54;7.20;99.90
66013;DHT22;52783;50.502;8.190;2024-03-08T10:52:20;7.20;99.90
66013;DHT22;52783;50.502;8.190;2024-03-08T10:54:47;7.10;99.90
66013;DHT22;52783;50.502;8.190;2024-03-08T10:57:14;6.90;99.90
66013;DHT22;52783;50.502;8.190;2024-03-08T10:59:42;7.00;99.90
66013;DHT22;52783;50.502;8.190;2024-03-08T11:02:11;7.10;99.90
66013;DHT22;52783;50.502;8.190;2024-03-08T11:04:37;7.40;99.90
66013;DHT22;52783;50.502;8.190;2024-03-08T11:07:03;7.10;99.90
66013;DHT22;52783;50.502;8.190;2024-03-08T11:09:36;7.40;99.90
66013;DHT22;52783;50.502;8.190;2024-03-08T11:12:23;7.20;99.90
66013;DHT22;52783;50.502;8.190;2024-03-08T11:14:55;7.10;99.90
66013;DHT22;52783;50.502;8.190;2024-03-08T11:19:58;7.40;99.90
66013;DHT22;52783;50.502;8.190;2024-03-08T11:22:28;7.80;99.90
66013;DHT22;52783;50.502;8.190;2024-03-08T11:25:02;7.80;99.90
66013;DHT22;52783;50.502;8.190;2024-03-08T11:27:31;7.90;99.90
66013;DHT22;52783;50.502;8.190;2024-03-08T11:30:01;7.70;99.90
66013;DHT22;52783;50.502;8.190;2024-03-08T11:32:38;7.60;99.90
66013;DHT22;52783;50.502;8.190;2024-03-08T11:35:19;7.70;99.90
66013;DHT22;52783;50.502;8.190;2024-03-08T11:37:45;7.80;99.90
66013;DHT22;52783;50.502;8.190;2024-03-08T11:40:14;7.70;99.90
66013;DHT22;52783;50.502;8.190;2024-03-08T11:42:48;7.80;99.90
66013;DHT22;52783;50.502;8.190;2024-03-08T11:45:15;7.90;99.90
66013;DHT22;52783;50.502;8.190;2024-03-08T11:47:43;7.90;99.90
66013;DHT22;52783;50.502;8.190;2024-03-08T11:50:12;7.80;99.90
66013;DHT22;52783;50.502;8.190;2024-03-08T11:52:52;7.90;99.90
66013;DHT22;52783;50.502;8.190;2024-03-08T11:55:18;8.10;99.90
66013;DHT22;52783;50.502;8.190;2024-03-08T11:57:44;8.20;99.90
66013;DHT22;52783;50.502;8.190;2024-03-08T12:00:18;8.00;99.90
66013;DHT22;52783;50.502;8.190;2024-03-08T12:03:07;8.00;99.90
66013;DHT22;52783;50.502;8.190;2024-03-08T12:05:33;8.00;99.90
66013;DHT22;52783;50.502;8.190;2024-03-08T12:07:59;8.30;99.90
66013;DHT22;52783;50.502;8.190;2024-03-08T12:10:25;8.40;99.90
66013;DHT22;52783;50.502;8.190;2024-03-08T12:12:52;8.30;99.90
66013;DHT22;52783;50.502;8.190;2024-03-08T12:15:20;8.00;99.90
66013;DHT22;52783;50.502;8.190;2024-03-08T12:17:47;8.10;99.90
66013;DHT22;52783;50.502;8.190;2024-03-08T12:20:18;8.30;99.90
66013;DHT22;52783;50.502;8.190;2024-03-08T12:22:47;8.50;99.90
66013;DHT22;52783;50.502;8.190;2024-03-08T12:25:13;8.10;99.90
66013;DHT22;52783;50.502;8.190;2024-03-08T12:27:40;8.30;99.90
66013;DHT22;52783;50.502;8.190;2024-03-08T12:30:20;8.30;99.90
66013;DHT22;52783;50.502;8.190;2024-03-08T12:33:04;8.20;99.90
66013;DHT22;52783;50.502;8.190;2024-03-08T12:35:31;8.10;99.90
66013;DHT22;52783;50.502;8.190;2024-03-08T12:37:59;8.00;99.90
66013;DHT22;52783;50.502;8.190;2024-03-08T12:40:27;8.40;99.90
66013;DHT22;52783;50.502;8.190;2024-03-08T12:42:54;8.40;99.90
66013;DHT22;52783;50.502;8.190;2024-03-08T12:45:20;8.30;99.90
66013;DHT22;52783;50.502;8.190;2024-03-08T12:47:47;8.20;99.90
66013;DHT22;52783;50.502;8.190;2024-03-08T12:50:13;8.20;99.90
66013;DHT22;52783;50.502;8.190;2024-03-08T12:52:38;8.20;99.90
66013;DHT22;52783;50.502;8.190;2024-03-08T12:55:04;8.30;99.90
66013;DHT22;52783;50.502;8.190;2024-03-08T12:57:33;8.70;99.90
66013;DHT22;52783;50.502;8.190;2024-03-08T12:59:59;8.70;99.90
66013;DHT22;52783;50.502;8.190;2024-03-08T13:02:25;8.80;99.90
66013;DHT22;52783;50.502;8.190;2024-03-08T13:04:51;8.80;99.90
66013;DHT22;52783;50.502;8.190;2024-03-08T13:07:25;8.50;99.90
66013;DHT22;52783;50.502;8.190;2024-03-08T13:09:54;8.70;99.90
66013;DHT22;52783;50.502;8.190;2024-03-08T13:12:21;8.80;99.90
66013;DHT22;52783;50.502;8.190;2024-03-08T13:14:47;8.60;99.90
66013;DHT22;52783;50.502;8.190;2024-03-08T13:17:14;8.60;99.90
66013;DHT22;52783;50.502;8.190;2024-03-08T13:19:39;8.70;99.90
66013;DHT22;52783;50.502;8.190;2024-03-08T13:22:05;8.90;99.90
66013;DHT22;52783;50.502;8.190;2024-03-08T13:24:31;8.90;99.90
66013;DHT22;52783;50.502;8.190;2024-03-08T13:26:57;8.90;99.90
66013;DHT22;52783;50.502;8.190;2024-03-08T13:29:24;8.90;99.90
66013;DHT22;52783;50.502;8.190;2024-03-08T13:31:49;8.90;99.90
66013;DHT22;52783;50.502;8.190;2024-03-08T13:34:17;9.10;99.90
66013;DHT22;52783;50.502;8.190;2024-03-08T13:36:43;9.00;99.90
66013;DHT22;52783;50.502;8.190;2024-03-08T13:39:10;8.90;99.90
66013;DHT22;52783;50.502;8.190;2024-03-08T13:41:41;9.00;99.90
66013;DHT22;52783;50.502;8.190;2024-03-08T13:44:07;9.00;99.90
66013;DHT22;52783;50.502;8.190;2024-03-08T13:46:33;8.90;99.90
66013;DHT22;52783;50.502;8.190;2024-03-08T13:49:04;8.70;99.90
66013;DHT22;52783;50.502;8.190;2024-03-08T13:51:31;8.90;99.90
66013;DHT22;52783;50.502;8.190;2024-03-08T13:53:57;9.00;99.90
66013;DHT22;52783;50.502;8.190;2024-03-08T13:56:23;9.00;99.90
66013;DHT22;52783;50.502;8.190;2024-03-08T13:58:49;9.10;99.90
66013;DHT22;52783;50.502;8.190;2024-03-08T14:01:14;9.00;99.90
66013;DHT22;52783;50.502;8.190;2024-03-08T14:03:40;9.20;99.90
66013;DHT22;52783;50.502;8.190;2024-03-08T14:06:07;8.90;99.90
66013;DHT22;52783;50.502;8.190;2024-03-08T14:08:32;9.20;99.90
66013;DHT22;52783;50.502;8.190;2024-03-08T14:10:58;9.30;99.90
66013;DHT22;52783;50.502;8.190;2024-03-08T14:13:24;9.50;99.90
66013;DHT22;52783;50.502;8.190;2024-03-08T14:15:50;9.20;99.90
66013;DHT22;52783;50.502;8.190;2024-03-08T14:18:17;9.10;99.90
66013;DHT22;52783;50.502;8.190;2024-03-08T14:20:42;9.00;99.90
66013;DHT22;52783;50.502;8.190;2024-03-08T14:23:09;9.20;99.90
66013;DHT22;52783;50.502;8.190;2024-03-08T14:25:35;9.40;99.90
66013;DHT22;52783;50.502;8.190;2024-03-08T14:28:01;9.20;99.90
66013;DHT22;52783;50.502;8.190;2024-03-08T14:30:33;9.10;99.90
66013;DHT22;52783;50.502;8.190;2024-03-08T14:33:04;9.40;99.90
66013;DHT22;52783;50.502;8.190;2024-03-08T14:35:31;9.20;99.90
66013;DHT22;52783;50.502;8.190;2024-03-08T14:37:57;9.30;99.90
66013;DHT22;52783;50.502;8.190;2024-03-08T14:40:23;9.30;99.90
66013;DHT22;52783;50.502;8.190;2024-03-08T14:42:49;9.20;99.90
66013;DHT22;52783;50.502;8.190;2024-03-08T14:45:15;9.30;99.90
66013;DHT22;52783;50.502;8.190;2024-03-08T14:47:41;9.40;99.90
66013;DHT22;52783;50.502;8.190;2024-03-08T14:50:08;9.50;99.90
66013;DHT22;52783;50.502;8.190;2024-03-08T14:52:35;9.50;99.90
66013;DHT22;52783;50.502;8.190;2024-03-08T14:55:01;9.40;99.90
66013;DHT22;52783;50.502;8.190;2024-03-08T14:57:31;9.50;99.90
66013;DHT22;52783;50.502;8.190;2024-03-08T14:59:58;9.50;99.90
66013;DHT22;52783;50.502;8.190;2024-03-08T15:02:31;9.50;99.90
66013;DHT22;52783;50.502;8.190;2024-03-08T15:04:57;9.60;99.90
66013;DHT22;52783;50.502;8.190;2024-03-08T15:07:24;9.30;99.90
66013;DHT22;52783;50.502;8.190;2024-03-08T15:09:51;9.30;99.90
66013;DHT22;52783;50.502;8.190;2024-03-08T15:12:16;9.30;99.90
66013;DHT22;52783;50.502;8.190;2024-03-08T15:14:42;9.30;99.90
66013;DHT22;52783;50.502;8.190;2024-03-08T15:17:10;9.30;99.90
66013;DHT22;52783;50.502;8.190;2024-03-08T15:19:42;9.30;99.90
66013;DHT22;52783;50.502;8.190;2024-03-08T15:22:08;9.40;99.90
66013;DHT22;52783;50.502;8.190;2024-03-08T15:24:35;9.60;99.90
66013;DHT22;52783;50.502;8.190;2024-03-08T15:27:00;9.50;99.90
66013;DHT22;52783;50.502;8.190;2024-03-08T15:29:27;9.50;99.90
66013;DHT22;52783;50.502;8.190;2024-03-08T15:31:53;9.50;99.90
66013;DHT22;52783;50.502;8.190;2024-03-08T15:34:20;9.40;99.90
66013;DHT22;52783;50.502;8.190;2024-03-08T15:36:49;9.40;99.90
66013;DHT22;52783;50.502;8.190;2024-03-08T15:39:17;9.50;99.90
66013;DHT22;52783;50.502;8.190;2024-03-08T15:41:42;9.40;99.90
66013;DHT22;52783;50.502;8.190;2024-03-08T15:44:11;9.40;99.90
66013;DHT22;52783;50.502;8.190;2024-03-08T15:46:38;9.40;99.90
66013;DHT22;52783;50.502;8.190;2024-03-08T15:49:05;9.30;99.90
66013;DHT22;52783;50.502;8.190;2024-03-08T15:51:32;9.40;99.90